Terminal Aerodrome Forecast
Issued by NWS Kansas City/Pleasant Hill, MO

Home | Current Version | Previous Version | Text Only | Print | Product List | Glossary On
Versions: 1 2 3 4 5 6 7 8 9 10 11 12 13 14 15 16 17 18 19
000
FTUS43 KEAX 251125
TAFMCI
TAF
KMCI 251125Z 2512/2612 15008KT P6SM BKN200
     FM251400 17012KT P6SM BKN080
     FM260000 20006KT P6SM SHRA VCTS OVC045CB
      TEMPO 2601/2603 4SM -TSRA OVC030CB
     FM260300 31004KT P6SM SHRA VCTS OVC015CB
     FM260600 33007KT P6SM VCSH OVC008=

USA.gov is the U.S. government's official web portal to all federal, state and local government web resources and services.